sensor_id;sensor_type;location;lat;lon;timestamp;temperature;humidity
22769;DHT22;13001;51.968;5.918;2024-03-08T00:02:13;4.00;99.90
22769;DHT22;13001;51.968;5.918;2024-03-08T00:04:40;4.00;99.90
22769;DHT22;13001;51.968;5.918;2024-03-08T00:07:08;4.00;99.90
22769;DHT22;13001;51.968;5.918;2024-03-08T00:09:36;3.90;99.90
22769;DHT22;13001;51.968;5.918;2024-03-08T00:12:05;3.90;99.90
22769;DHT22;13001;51.968;5.918;2024-03-08T00:14:33;3.90;99.90
22769;DHT22;13001;51.968;5.918;2024-03-08T00:17:01;3.90;99.90
22769;DHT22;13001;51.968;5.918;2024-03-08T00:19:32;3.80;99.90
22769;DHT22;13001;51.968;5.918;2024-03-08T00:22:00;3.80;99.90
22769;DHT22;13001;51.968;5.918;2024-03-08T00:24:27;3.80;99.90
22769;DHT22;13001;51.968;5.918;2024-03-08T00:26:55;3.80;99.90
22769;DHT22;13001;51.968;5.918;2024-03-08T00:29:24;3.80;99.90
22769;DHT22;13001;51.968;5.918;2024-03-08T00:31:52;3.70;99.90
22769;DHT22;13001;51.968;5.918;2024-03-08T00:34:19;3.70;99.90
22769;DHT22;13001;51.968;5.918;2024-03-08T00:36:48;3.70;99.90
22769;DHT22;13001;51.968;5.918;2024-03-08T00:39:15;3.70;99.90
22769;DHT22;13001;51.968;5.918;2024-03-08T00:41:44;3.70;99.90
22769;DHT22;13001;51.968;5.918;2024-03-08T00:44:11;3.60;99.90
22769;DHT22;13001;51.968;5.918;2024-03-08T00:46:39;3.60;99.90
22769;DHT22;13001;51.968;5.918;2024-03-08T00:49:06;3.60;99.90
22769;DHT22;13001;51.968;5.918;2024-03-08T00:51:34;3.60;99.90
22769;DHT22;13001;51.968;5.918;2024-03-08T00:54:04;3.60;99.90
22769;DHT22;13001;51.968;5.918;2024-03-08T00:56:31;3.80;99.90
22769;DHT22;13001;51.968;5.918;2024-03-08T00:59:00;3.90;99.90
22769;DHT22;13001;51.968;5.918;2024-03-08T01:01:29;4.00;99.90
22769;DHT22;13001;51.968;5.918;2024-03-08T01:03:58;4.10;99.90
22769;DHT22;13001;51.968;5.918;2024-03-08T01:06:27;4.10;99.90
22769;DHT22;13001;51.968;5.918;2024-03-08T01:08:54;4.20;99.90
22769;DHT22;13001;51.968;5.918;2024-03-08T01:11:22;4.20;99.90
22769;DHT22;13001;51.968;5.918;2024-03-08T01:13:51;4.20;99.90
22769;DHT22;13001;51.968;5.918;2024-03-08T01:16:20;4.20;99.90
22769;DHT22;13001;51.968;5.918;2024-03-08T01:18:47;4.20;99.90
22769;DHT22;13001;51.968;5.918;2024-03-08T01:21:15;4.20;99.90
22769;DHT22;13001;51.968;5.918;2024-03-08T01:23:43;4.20;99.90
22769;DHT22;13001;51.968;5.918;2024-03-08T01:26:10;4.20;99.90
22769;DHT22;13001;51.968;5.918;2024-03-08T01:28:37;4.20;99.90
22769;DHT22;13001;51.968;5.918;2024-03-08T01:31:06;4.20;99.90
22769;DHT22;13001;51.968;5.918;2024-03-08T01:33:34;4.20;99.90
22769;DHT22;13001;51.968;5.918;2024-03-08T01:36:01;4.20;99.90
22769;DHT22;13001;51.968;5.918;2024-03-08T01:38:29;4.20;99.90
22769;DHT22;13001;51.968;5.918;2024-03-08T01:40:57;4.20;99.90
22769;DHT22;13001;51.968;5.918;2024-03-08T01:43:28;4.20;99.90
22769;DHT22;13001;51.968;5.918;2024-03-08T01:45:58;4.10;99.90
22769;DHT22;13001;51.968;5.918;2024-03-08T01:48:29;4.10;99.90
22769;DHT22;13001;51.968;5.918;2024-03-08T01:50:57;4.10;99.90
22769;DHT22;13001;51.968;5.918;2024-03-08T01:53:27;4.10;99.90
22769;DHT22;13001;51.968;5.918;2024-03-08T01:55:57;4.00;99.90
22769;DHT22;13001;51.968;5.918;2024-03-08T01:58:27;4.00;99.90
22769;DHT22;13001;51.968;5.918;2024-03-08T02:00:56;4.00;99.90
22769;DHT22;13001;51.968;5.918;2024-03-08T02:03:34;4.00;99.90
22769;DHT22;13001;51.968;5.918;2024-03-08T02:06:04;4.00;99.90
22769;DHT22;13001;51.968;5.918;2024-03-08T02:08:33;4.00;99.90
22769;DHT22;13001;51.968;5.918;2024-03-08T02:11:01;4.00;99.90
22769;DHT22;13001;51.968;5.918;2024-03-08T02:13:29;4.00;99.90
22769;DHT22;13001;51.968;5.918;2024-03-08T02:15:58;3.90;99.90
22769;DHT22;13001;51.968;5.918;2024-03-08T02:18:29;3.90;99.90
22769;DHT22;13001;51.968;5.918;2024-03-08T02:20:58;3.90;99.90
22769;DHT22;13001;51.968;5.918;2024-03-08T02:23:26;3.90;99.90
22769;DHT22;13001;51.968;5.918;2024-03-08T02:25:55;3.80;99.90
22769;DHT22;13001;51.968;5.918;2024-03-08T02:28:24;3.80;99.90
22769;DHT22;13001;51.968;5.918;2024-03-08T02:30:52;3.80;99.90
22769;DHT22;13001;51.968;5.918;2024-03-08T02:33:23;3.80;99.90
22769;DHT22;13001;51.968;5.918;2024-03-08T02:35:52;3.70;99.90
22769;DHT22;13001;51.968;5.918;2024-03-08T02:38:21;3.80;99.80
22769;DHT22;13001;51.968;5.918;2024-03-08T02:40:52;3.70;99.80
22769;DHT22;13001;51.968;5.918;2024-03-08T02:43:21;3.70;99.90
22769;DHT22;13001;51.968;5.918;2024-03-08T02:45:51;3.70;99.60
22769;DHT22;13001;51.968;5.918;2024-03-08T02:48:22;3.70;99.80
22769;DHT22;13001;51.968;5.918;2024-03-08T02:50:50;3.60;99.80
22769;DHT22;13001;51.968;5.918;2024-03-08T02:53:20;3.60;99.80
22769;DHT22;13001;51.968;5.918;2024-03-08T02:55:48;3.60;99.80
22769;DHT22;13001;51.968;5.918;2024-03-08T02:58:16;3.60;99.80
22769;DHT22;13001;51.968;5.918;2024-03-08T03:00:44;3.60;99.80
22769;DHT22;13001;51.968;5.918;2024-03-08T03:03:12;3.50;99.90
22769;DHT22;13001;51.968;5.918;2024-03-08T03:05:39;3.50;99.90
22769;DHT22;13001;51.968;5.918;2024-03-08T03:08:09;3.50;99.90
22769;DHT22;13001;51.968;5.918;2024-03-08T03:10:37;3.50;99.90
22769;DHT22;13001;51.968;5.918;2024-03-08T03:13:05;3.50;99.90
22769;DHT22;13001;51.968;5.918;2024-03-08T03:15:33;3.50;99.90
22769;DHT22;13001;51.968;5.918;2024-03-08T03:18:03;3.40;99.90
22769;DHT22;13001;51.968;5.918;2024-03-08T03:20:32;3.40;99.90
22769;DHT22;13001;51.968;5.918;2024-03-08T03:23:01;3.40;99.90
22769;DHT22;13001;51.968;5.918;2024-03-08T03:25:29;3.40;99.90
22769;DHT22;13001;51.968;5.918;2024-03-08T03:27:58;3.40;99.90
22769;DHT22;13001;51.968;5.918;2024-03-08T03:30:27;3.40;99.90
22769;DHT22;13001;51.968;5.918;2024-03-08T03:32:56;3.30;99.90
22769;DHT22;13001;51.968;5.918;2024-03-08T03:35:27;3.30;99.90
22769;DHT22;13001;51.968;5.918;2024-03-08T03:37:55;3.30;99.90
22769;DHT22;13001;51.968;5.918;2024-03-08T03:40:40;3.30;99.90
22769;DHT22;13001;51.968;5.918;2024-03-08T03:43:08;3.30;99.90
22769;DHT22;13001;51.968;5.918;2024-03-08T03:45:38;3.20;99.90
22769;DHT22;13001;51.968;5.918;2024-03-08T03:48:08;3.20;99.90
22769;DHT22;13001;51.968;5.918;2024-03-08T03:50:39;3.20;99.90
22769;DHT22;13001;51.968;5.918;2024-03-08T03:53:06;3.20;99.90
22769;DHT22;13001;51.968;5.918;2024-03-08T03:55:34;3.20;99.90
22769;DHT22;13001;51.968;5.918;2024-03-08T03:58:03;3.20;99.90
22769;DHT22;13001;51.968;5.918;2024-03-08T04:00:31;3.20;99.90
22769;DHT22;13001;51.968;5.918;2024-03-08T04:02:59;3.20;99.90
22769;DHT22;13001;51.968;5.918;2024-03-08T04:05:27;3.20;99.90
22769;DHT22;13001;51.968;5.918;2024-03-08T04:07:55;3.10;99.90
22769;DHT22;13001;51.968;5.918;2024-03-08T04:10:23;3.10;99.90
22769;DHT22;13001;51.968;5.918;2024-03-08T04:12:50;3.10;99.90
22769;DHT22;13001;51.968;5.918;2024-03-08T04:15:35;3.10;99.90
22769;DHT22;13001;51.968;5.918;2024-03-08T04:18:04;3.10;99.90
22769;DHT22;13001;51.968;5.918;2024-03-08T04:20:32;3.10;99.90
22769;DHT22;13001;51.968;5.918;2024-03-08T04:22:59;3.10;99.90
22769;DHT22;13001;51.968;5.918;2024-03-08T04:25:28;3.10;99.90
22769;DHT22;13001;51.968;5.918;2024-03-08T04:27:57;3.10;99.90
22769;DHT22;13001;51.968;5.918;2024-03-08T04:30:26;3.10;99.90
22769;DHT22;13001;51.968;5.918;2024-03-08T04:32:54;3.10;99.90
22769;DHT22;13001;51.968;5.918;2024-03-08T04:35:22;3.10;99.90
22769;DHT22;13001;51.968;5.918;2024-03-08T04:37:50;3.10;99.90
22769;DHT22;13001;51.968;5.918;2024-03-08T04:40:19;3.10;99.90
22769;DHT22;13001;51.968;5.918;2024-03-08T04:42:46;3.10;99.90
22769;DHT22;13001;51.968;5.918;2024-03-08T04:45:16;3.10;99.90
22769;DHT22;13001;51.968;5.918;2024-03-08T04:47:43;3.10;99.90
22769;DHT22;13001;51.968;5.918;2024-03-08T04:50:11;3.10;99.90
22769;DHT22;13001;51.968;5.918;2024-03-08T04:52:38;3.10;99.90
22769;DHT22;13001;51.968;5.918;2024-03-08T04:55:06;3.10;99.90
22769;DHT22;13001;51.968;5.918;2024-03-08T04:57:34;3.10;99.90
22769;DHT22;13001;51.968;5.918;2024-03-08T05:00:03;3.10;99.90
22769;DHT22;13001;51.968;5.918;2024-03-08T05:02:32;3.00;99.90
22769;DHT22;13001;51.968;5.918;2024-03-08T05:05:00;3.10;99.90
22769;DHT22;13001;51.968;5.918;2024-03-08T05:07:27;3.10;99.90
22769;DHT22;13001;51.968;5.918;2024-03-08T05:09:54;3.00;99.90
22769;DHT22;13001;51.968;5.918;2024-03-08T05:12:23;3.00;99.90
22769;DHT22;13001;51.968;5.918;2024-03-08T05:14:50;3.00;99.90
22769;DHT22;13001;51.968;5.918;2024-03-08T05:17:18;3.00;99.90
22769;DHT22;13001;51.968;5.918;2024-03-08T05:19:47;3.00;99.90
22769;DHT22;13001;51.968;5.918;2024-03-08T05:22:14;3.00;99.90
22769;DHT22;13001;51.968;5.918;2024-03-08T05:24:42;3.00;99.90
22769;DHT22;13001;51.968;5.918;2024-03-08T05:27:09;3.00;99.90
22769;DHT22;13001;51.968;5.918;2024-03-08T05:29:37;3.00;99.90
22769;DHT22;13001;51.968;5.918;2024-03-08T05:32:05;3.00;99.90
22769;DHT22;13001;51.968;5.918;2024-03-08T05:34:33;3.00;99.90
22769;DHT22;13001;51.968;5.918;2024-03-08T05:37:01;3.00;99.90
22769;DHT22;13001;51.968;5.918;2024-03-08T05:39:29;3.00;99.90
22769;DHT22;13001;51.968;5.918;2024-03-08T05:41:58;3.00;99.90
22769;DHT22;13001;51.968;5.918;2024-03-08T05:44:26;2.90;99.90
22769;DHT22;13001;51.968;5.918;2024-03-08T05:46:55;2.90;99.90
22769;DHT22;13001;51.968;5.918;2024-03-08T05:49:22;2.90;99.90
22769;DHT22;13001;51.968;5.918;2024-03-08T05:51:51;2.90;99.90
22769;DHT22;13001;51.968;5.918;2024-03-08T05:54:20;2.90;99.90
22769;DHT22;13001;51.968;5.918;2024-03-08T05:56:49;2.90;99.90
22769;DHT22;13001;51.968;5.918;2024-03-08T05:59:19;2.90;99.90
22769;DHT22;13001;51.968;5.918;2024-03-08T06:01:49;2.90;99.90
22769;DHT22;13001;51.968;5.918;2024-03-08T06:04:17;2.90;99.90
22769;DHT22;13001;51.968;5.918;2024-03-08T06:06:46;2.90;99.90
22769;DHT22;13001;51.968;5.918;2024-03-08T06:09:14;2.90;99.90
22769;DHT22;13001;51.968;5.918;2024-03-08T06:11:43;2.90;99.90
22769;DHT22;13001;51.968;5.918;2024-03-08T06:14:11;2.90;99.90
22769;DHT22;13001;51.968;5.918;2024-03-08T06:16:38;2.90;99.90
22769;DHT22;13001;51.968;5.918;2024-03-08T06:19:06;2.90;99.90
22769;DHT22;13001;51.968;5.918;2024-03-08T06:21:34;3.00;99.90
22769;DHT22;13001;51.968;5.918;2024-03-08T06:24:03;3.00;99.90
22769;DHT22;13001;51.968;5.918;2024-03-08T06:26:31;3.10;99.90
22769;DHT22;13001;51.968;5.918;2024-03-08T06:28:59;3.30;99.90
22769;DHT22;13001;51.968;5.918;2024-03-08T06:31:26;3.50;99.60
22769;DHT22;13001;51.968;5.918;2024-03-08T06:33:54;3.80;99.30
22769;DHT22;13001;51.968;5.918;2024-03-08T06:36:21;4.30;98.90
22769;DHT22;13001;51.968;5.918;2024-03-08T06:38:49;4.60;98.20
22769;DHT22;13001;51.968;5.918;2024-03-08T06:41:17;5.10;97.50
22769;DHT22;13001;51.968;5.918;2024-03-08T06:43:46;5.40;96.70
22769;DHT22;13001;51.968;5.918;2024-03-08T06:46:16;5.80;95.90
22769;DHT22;13001;51.968;5.918;2024-03-08T06:48:44;6.20;95.20
22769;DHT22;13001;51.968;5.918;2024-03-08T06:51:13;6.50;94.30
22769;DHT22;13001;51.968;5.918;2024-03-08T06:53:41;6.70;93.70
22769;DHT22;13001;51.968;5.918;2024-03-08T06:56:08;7.10;93.20
22769;DHT22;13001;51.968;5.918;2024-03-08T06:58:36;7.50;92.50
22769;DHT22;13001;51.968;5.918;2024-03-08T07:01:04;7.80;91.70
22769;DHT22;13001;51.968;5.918;2024-03-08T07:03:35;8.20;90.90
22769;DHT22;13001;51.968;5.918;2024-03-08T07:06:05;8.60;90.10
22769;DHT22;13001;51.968;5.918;2024-03-08T07:08:34;9.10;88.60
22769;DHT22;13001;51.968;5.918;2024-03-08T07:11:01;9.40;86.70
22769;DHT22;13001;51.968;5.918;2024-03-08T07:13:33;9.60;84.80
22769;DHT22;13001;51.968;5.918;2024-03-08T07:16:00;9.90;83.90
22769;DHT22;13001;51.968;5.918;2024-03-08T07:18:28;10.30;82.70
22769;DHT22;13001;51.968;5.918;2024-03-08T07:20:56;10.50;80.70
22769;DHT22;13001;51.968;5.918;2024-03-08T07:23:23;10.20;79.20
22769;DHT22;13001;51.968;5.918;2024-03-08T07:26:09;9.50;80.20
22769;DHT22;13001;51.968;5.918;2024-03-08T07:28:37;8.70;82.30
22769;DHT22;13001;51.968;5.918;2024-03-08T07:31:04;8.30;84.20
22769;DHT22;13001;51.968;5.918;2024-03-08T07:33:38;7.90;85.10
22769;DHT22;13001;51.968;5.918;2024-03-08T07:36:05;7.80;87.00
22769;DHT22;13001;51.968;5.918;2024-03-08T07:38:33;8.50;87.20
22769;DHT22;13001;51.968;5.918;2024-03-08T07:41:00;9.50;84.30
22769;DHT22;13001;51.968;5.918;2024-03-08T07:43:28;10.50;81.30
22769;DHT22;13001;51.968;5.918;2024-03-08T07:45:55;11.20;77.70
22769;DHT22;13001;51.968;5.918;2024-03-08T07:48:23;11.80;75.20
22769;DHT22;13001;51.968;5.918;2024-03-08T07:50:51;12.20;73.30
22769;DHT22;13001;51.968;5.918;2024-03-08T07:53:19;12.70;72.00
22769;DHT22;13001;51.968;5.918;2024-03-08T07:55:47;13.20;70.20
22769;DHT22;13001;51.968;5.918;2024-03-08T07:58:14;13.50;67.70
22769;DHT22;13001;51.968;5.918;2024-03-08T08:00:42;13.50;66.70
22769;DHT22;13001;51.968;5.918;2024-03-08T08:03:09;13.60;65.80
22769;DHT22;13001;51.968;5.918;2024-03-08T08:05:37;13.90;65.40
22769;DHT22;13001;51.968;5.918;2024-03-08T08:08:07;14.30;65.10
22769;DHT22;13001;51.968;5.918;2024-03-08T08:10:37;14.60;63.00
22769;DHT22;13001;51.968;5.918;2024-03-08T08:13:04;14.80;62.10
22769;DHT22;13001;51.968;5.918;2024-03-08T08:15:32;15.30;61.40
22769;DHT22;13001;51.968;5.918;2024-03-08T08:18:03;15.60;60.30
22769;DHT22;13001;51.968;5.918;2024-03-08T08:20:33;15.60;58.80
22769;DHT22;13001;51.968;5.918;2024-03-08T08:23:01;15.80;58.50
22769;DHT22;13001;51.968;5.918;2024-03-08T08:25:29;15.90;58.30
22769;DHT22;13001;51.968;5.918;2024-03-08T08:27:56;16.30;58.00
22769;DHT22;13001;51.968;5.918;2024-03-08T08:30:24;16.60;57.10
22769;DHT22;13001;51.968;5.918;2024-03-08T08:32:51;16.90;56.20
22769;DHT22;13001;51.968;5.918;2024-03-08T08:35:19;17.10;55.50
22769;DHT22;13001;51.968;5.918;2024-03-08T08:37:47;17.30;55.30
22769;DHT22;13001;51.968;5.918;2024-03-08T08:40:14;17.50;54.40
22769;DHT22;13001;51.968;5.918;2024-03-08T08:42:43;17.50;54.10
22769;DHT22;13001;51.968;5.918;2024-03-08T08:45:13;17.60;54.30
22769;DHT22;13001;51.968;5.918;2024-03-08T08:47:41;17.80;54.00
22769;DHT22;13001;51.968;5.918;2024-03-08T08:50:09;18.00;53.80
22769;DHT22;13001;51.968;5.918;2024-03-08T08:52:39;18.20;54.10
22769;DHT22;13001;51.968;5.918;2024-03-08T08:55:07;18.40;53.40
22769;DHT22;13001;51.968;5.918;2024-03-08T08:57:34;18.60;53.10
22769;DHT22;13001;51.968;5.918;2024-03-08T09:00:02;18.70;52.50
22769;DHT22;13001;51.968;5.918;2024-03-08T09:02:39;18.80;52.20
22769;DHT22;13001;51.968;5.918;2024-03-08T09:05:07;18.70;51.60
22769;DHT22;13001;51.968;5.918;2024-03-08T09:07:35;18.40;51.70
22769;DHT22;13001;51.968;5.918;2024-03-08T09:10:03;18.30;52.30
22769;DHT22;13001;51.968;5.918;2024-03-08T09:12:32;18.20;52.30
22769;DHT22;13001;51.968;5.918;2024-03-08T09:15:01;18.20;52.20
22769;DHT22;13001;51.968;5.918;2024-03-08T09:17:28;18.10;52.30
22769;DHT22;13001;51.968;5.918;2024-03-08T09:19:58;18.30;52.40
22769;DHT22;13001;51.968;5.918;2024-03-08T09:22:26;18.40;51.60
22769;DHT22;13001;51.968;5.918;2024-03-08T09:24:53;18.10;51.50
22769;DHT22;13001;51.968;5.918;2024-03-08T09:27:21;17.50;53.00
22769;DHT22;13001;51.968;5.918;2024-03-08T09:29:48;16.90;53.60
22769;DHT22;13001;51.968;5.918;2024-03-08T09:32:16;16.20;54.70
22769;DHT22;13001;51.968;5.918;2024-03-08T09:34:43;15.60;56.30
22769;DHT22;13001;51.968;5.918;2024-03-08T09:37:11;14.90;57.20
22769;DHT22;13001;51.968;5.918;2024-03-08T09:39:39;14.30;58.80
22769;DHT22;13001;51.968;5.918;2024-03-08T09:42:07;13.70;60.00
22769;DHT22;13001;51.968;5.918;2024-03-08T09:44:35;13.20;61.60
22769;DHT22;13001;51.968;5.918;2024-03-08T09:47:05;12.70;62.50
22769;DHT22;13001;51.968;5.918;2024-03-08T09:49:32;12.30;63.90
22769;DHT22;13001;51.968;5.918;2024-03-08T09:51:59;11.80;65.50
22769;DHT22;13001;51.968;5.918;2024-03-08T09:54:27;11.50;67.50
22769;DHT22;13001;51.968;5.918;2024-03-08T09:56:55;11.30;69.00
22769;DHT22;13001;51.968;5.918;2024-03-08T09:59:24;11.20;69.20
22769;DHT22;13001;51.968;5.918;2024-03-08T10:01:59;11.10;69.50
22769;DHT22;13001;51.968;5.918;2024-03-08T10:04:31;11.00;70.60
22769;DHT22;13001;51.968;5.918;2024-03-08T10:07:02;11.00;71.20
22769;DHT22;13001;51.968;5.918;2024-03-08T10:09:32;11.00;71.60
22769;DHT22;13001;51.968;5.918;2024-03-08T10:12:01;11.10;71.80
22769;DHT22;13001;51.968;5.918;2024-03-08T10:14:31;11.00;71.70
22769;DHT22;13001;51.968;5.918;2024-03-08T10:16:58;10.90;71.70
22769;DHT22;13001;51.968;5.918;2024-03-08T10:19:28;10.80;72.00
22769;DHT22;13001;51.968;5.918;2024-03-08T10:21:56;10.70;72.40
22769;DHT22;13001;51.968;5.918;2024-03-08T10:24:25;10.80;72.70
22769;DHT22;13001;51.968;5.918;2024-03-08T10:27:00;10.70;72.80
22769;DHT22;13001;51.968;5.918;2024-03-08T10:29:31;10.70;73.10
22769;DHT22;13001;51.968;5.918;2024-03-08T10:31:59;10.70;73.60
22769;DHT22;13001;51.968;5.918;2024-03-08T10:34:26;10.70;73.90
22769;DHT22;13001;51.968;5.918;2024-03-08T10:36:58;10.80;73.70
22769;DHT22;13001;51.968;5.918;2024-03-08T10:39:28;10.80;73.70
22769;DHT22;13001;51.968;5.918;2024-03-08T10:41:58;10.80;73.30
22769;DHT22;13001;51.968;5.918;2024-03-08T10:44:34;10.70;73.30
22769;DHT22;13001;51.968;5.918;2024-03-08T10:47:15;10.70;73.30
22769;DHT22;13001;51.968;5.918;2024-03-08T10:52:12;10.90;74.00
22769;DHT22;13001;51.968;5.918;2024-03-08T10:54:42;10.90;74.10
22769;DHT22;13001;51.968;5.918;2024-03-08T10:57:12;11.00;74.20
22769;DHT22;13001;51.968;5.918;2024-03-08T10:59:42;11.00;74.10
22769;DHT22;13001;51.968;5.918;2024-03-08T11:02:11;11.10;74.30
22769;DHT22;13001;51.968;5.918;2024-03-08T11:04:43;11.20;74.30
22769;DHT22;13001;51.968;5.918;2024-03-08T11:07:08;11.10;73.40
22769;DHT22;13001;51.968;5.918;2024-03-08T11:09:39;11.10;73.30
22769;DHT22;13001;51.968;5.918;2024-03-08T11:12:25;11.20;73.80
22769;DHT22;13001;51.968;5.918;2024-03-08T11:14:55;11.20;72.80
22769;DHT22;13001;51.968;5.918;2024-03-08T11:20:00;11.10;73.00
22769;DHT22;13001;51.968;5.918;2024-03-08T11:22:32;11.10;73.30
22769;DHT22;13001;51.968;5.918;2024-03-08T11:25:08;11.10;73.80
22769;DHT22;13001;51.968;5.918;2024-03-08T11:27:37;11.10;73.30
22769;DHT22;13001;51.968;5.918;2024-03-08T11:30:06;11.10;73.60
22769;DHT22;13001;51.968;5.918;2024-03-08T11:32:43;11.20;73.70
22769;DHT22;13001;51.968;5.918;2024-03-08T11:35:20;11.30;74.30
22769;DHT22;13001;51.968;5.918;2024-03-08T11:37:39;11.40;72.80
22769;DHT22;13001;51.968;5.918;2024-03-08T11:40:11;11.50;72.60
22769;DHT22;13001;51.968;5.918;2024-03-08T11:42:40;11.50;71.80
22769;DHT22;13001;51.968;5.918;2024-03-08T11:45:12;11.50;72.00
22769;DHT22;13001;51.968;5.918;2024-03-08T11:47:44;11.50;70.90
22769;DHT22;13001;51.968;5.918;2024-03-08T11:50:15;11.50;71.10
22769;DHT22;13001;51.968;5.918;2024-03-08T11:52:43;11.60;72.00
22769;DHT22;13001;51.968;5.918;2024-03-08T11:55:13;11.70;71.40
22769;DHT22;13001;51.968;5.918;2024-03-08T11:57:40;11.70;70.90
22769;DHT22;13001;51.968;5.918;2024-03-08T12:00:16;11.80;69.50
22769;DHT22;13001;51.968;5.918;2024-03-08T12:03:02;11.70;69.20
22769;DHT22;13001;51.968;5.918;2024-03-08T12:05:35;11.60;68.80
22769;DHT22;13001;51.968;5.918;2024-03-08T12:08:03;11.60;67.90
22769;DHT22;13001;51.968;5.918;2024-03-08T12:10:32;11.40;68.00
22769;DHT22;13001;51.968;5.918;2024-03-08T12:13:01;11.30;68.60
22769;DHT22;13001;51.968;5.918;2024-03-08T12:15:32;11.30;69.20
22769;DHT22;13001;51.968;5.918;2024-03-08T12:18:00;11.30;69.60
22769;DHT22;13001;51.968;5.918;2024-03-08T12:20:29;11.30;69.40
22769;DHT22;13001;51.968;5.918;2024-03-08T12:22:58;11.20;69.20
22769;DHT22;13001;51.968;5.918;2024-03-08T12:25:31;11.10;70.00
22769;DHT22;13001;51.968;5.918;2024-03-08T12:28:11;11.10;69.70
22769;DHT22;13001;51.968;5.918;2024-03-08T12:30:50;11.00;70.00
22769;DHT22;13001;51.968;5.918;2024-03-08T12:33:20;11.00;70.20
22769;DHT22;13001;51.968;5.918;2024-03-08T12:35:53;10.90;70.30
22769;DHT22;13001;51.968;5.918;2024-03-08T12:38:21;10.90;70.90
22769;DHT22;13001;51.968;5.918;2024-03-08T12:40:57;10.90;71.30
22769;DHT22;13001;51.968;5.918;2024-03-08T12:43:25;10.90;71.00
22769;DHT22;13001;51.968;5.918;2024-03-08T12:45:52;10.90;71.00
22769;DHT22;13001;51.968;5.918;2024-03-08T12:48:21;11.00;71.20
22769;DHT22;13001;51.968;5.918;2024-03-08T12:50:49;11.00;71.20
22769;DHT22;13001;51.968;5.918;2024-03-08T12:53:18;11.00;70.70
22769;DHT22;13001;51.968;5.918;2024-03-08T12:55:45;10.90;70.70
22769;DHT22;13001;51.968;5.918;2024-03-08T12:58:13;10.90;71.00
22769;DHT22;13001;51.968;5.918;2024-03-08T13:00:42;10.90;71.70
22769;DHT22;13001;51.968;5.918;2024-03-08T13:03:10;10.90;71.50
22769;DHT22;13001;51.968;5.918;2024-03-08T13:05:38;10.80;71.10
22769;DHT22;13001;51.968;5.918;2024-03-08T13:08:09;10.80;71.80
22769;DHT22;13001;51.968;5.918;2024-03-08T13:10:40;10.80;71.40
22769;DHT22;13001;51.968;5.918;2024-03-08T13:13:11;10.70;71.40
22769;DHT22;13001;51.968;5.918;2024-03-08T13:15:42;10.70;71.90
22769;DHT22;13001;51.968;5.918;2024-03-08T13:18:09;10.70;72.00
22769;DHT22;13001;51.968;5.918;2024-03-08T13:20:37;10.60;71.80
22769;DHT22;13001;51.968;5.918;2024-03-08T13:23:06;10.60;71.90
22769;DHT22;13001;51.968;5.918;2024-03-08T13:25:35;10.50;72.10
22769;DHT22;13001;51.968;5.918;2024-03-08T13:28:04;10.60;72.90
22769;DHT22;13001;51.968;5.918;2024-03-08T13:30:33;10.50;72.50
22769;DHT22;13001;51.968;5.918;2024-03-08T13:33:02;10.50;73.50
22769;DHT22;13001;51.968;5.918;2024-03-08T13:35:31;10.50;73.50
22769;DHT22;13001;51.968;5.918;2024-03-08T13:38:00;10.50;73.70
22769;DHT22;13001;51.968;5.918;2024-03-08T13:40:41;10.50;73.30
22769;DHT22;13001;51.968;5.918;2024-03-08T13:43:10;10.50;73.10
22769;DHT22;13001;51.968;5.918;2024-03-08T13:45:37;10.40;73.20
22769;DHT22;13001;51.968;5.918;2024-03-08T13:48:05;10.40;74.00
22769;DHT22;13001;51.968;5.918;2024-03-08T13:50:33;10.40;73.90
22769;DHT22;13001;51.968;5.918;2024-03-08T13:53:01;10.40;73.60
22769;DHT22;13001;51.968;5.918;2024-03-08T13:55:31;10.30;73.40
22769;DHT22;13001;51.968;5.918;2024-03-08T13:58:00;10.30;73.70
22769;DHT22;13001;51.968;5.918;2024-03-08T14:00:27;10.20;73.20
22769;DHT22;13001;51.968;5.918;2024-03-08T14:02:56;10.20;73.80
22769;DHT22;13001;51.968;5.918;2024-03-08T14:05:25;10.20;74.40
22769;DHT22;13001;51.968;5.918;2024-03-08T14:07:53;10.30;74.70
22769;DHT22;13001;51.968;5.918;2024-03-08T14:10:22;10.20;74.20
22769;DHT22;13001;51.968;5.918;2024-03-08T14:12:50;10.30;74.40
22769;DHT22;13001;51.968;5.918;2024-03-08T14:15:17;10.30;74.60
22769;DHT22;13001;51.968;5.918;2024-03-08T14:17:54;10.30;74.80
22769;DHT22;13001;51.968;5.918;2024-03-08T14:20:22;10.30;74.70
22769;DHT22;13001;51.968;5.918;2024-03-08T14:22:55;10.30;74.70
22769;DHT22;13001;51.968;5.918;2024-03-08T14:25:23;10.30;74.60
22769;DHT22;13001;51.968;5.918;2024-03-08T14:27:53;10.30;74.10
22769;DHT22;13001;51.968;5.918;2024-03-08T14:30:22;10.30;74.50
22769;DHT22;13001;51.968;5.918;2024-03-08T14:32:59;10.30;75.20
22769;DHT22;13001;51.968;5.918;2024-03-08T14:35:27;10.30;75.20
22769;DHT22;13001;51.968;5.918;2024-03-08T14:37:56;10.30;75.20
22769;DHT22;13001;51.968;5.918;2024-03-08T14:40:27;10.30;74.50
22769;DHT22;13001;51.968;5.918;2024-03-08T14:42:56;10.30;74.40
22769;DHT22;13001;51.968;5.918;2024-03-08T14:45:24;10.30;74.80
22769;DHT22;13001;51.968;5.918;2024-03-08T14:47:53;10.30;74.80
22769;DHT22;13001;51.968;5.918;2024-03-08T14:50:22;10.30;74.40
22769;DHT22;13001;51.968;5.918;2024-03-08T14:52:51;10.20;74.50
22769;DHT22;13001;51.968;5.918;2024-03-08T14:55:21;10.20;74.40
22769;DHT22;13001;51.968;5.918;2024-03-08T14:57:50;10.30;74.90
22769;DHT22;13001;51.968;5.918;2024-03-08T15:00:19;10.20;74.50
22769;DHT22;13001;51.968;5.918;2024-03-08T15:02:54;10.20;75.10
22769;DHT22;13001;51.968;5.918;2024-03-08T15:05:22;10.20;75.40
22769;DHT22;13001;51.968;5.918;2024-03-08T15:07:59;10.30;75.50
22769;DHT22;13001;51.968;5.918;2024-03-08T15:10:27;10.30;75.90
22769;DHT22;13001;51.968;5.918;2024-03-08T15:12:56;10.30;76.20
22769;DHT22;13001;51.968;5.918;2024-03-08T15:15:25;10.30;76.10
22769;DHT22;13001;51.968;5.918;2024-03-08T15:17:53;10.30;75.70
22769;DHT22;13001;51.968;5.918;2024-03-08T15:20:22;10.20;76.40
22769;DHT22;13001;51.968;5.918;2024-03-08T15:22:54;10.20;75.20
22769;DHT22;13001;51.968;5.918;2024-03-08T15:25:23;10.20;75.80
22769;DHT22;13001;51.968;5.918;2024-03-08T15:27:54;10.10;76.10
22769;DHT22;13001;51.968;5.918;2024-03-08T15:30:24;10.10;76.70
22769;DHT22;13001;51.968;5.918;2024-03-08T15:32:58;10.10;76.60
22769;DHT22;13001;51.968;5.918;2024-03-08T15:35:27;10.10;76.30
22769;DHT22;13001;51.968;5.918;2024-03-08T15:37:55;10.10;76.70
22769;DHT22;13001;51.968;5.918;2024-03-08T15:40:24;10.10;76.90
22769;DHT22;13001;51.968;5.918;2024-03-08T15:42:58;10.10;76.80
22769;DHT22;13001;51.968;5.918;2024-03-08T15:45:23;10.00;76.70
22769;DHT22;13001;51.968;5.918;2024-03-08T15:47:53;10.00;76.50
22769;DHT22;13001;51.968;5.918;2024-03-08T15:50:21;10.00;76.60
22769;DHT22;13001;51.968;5.918;2024-03-08T15:52:50;10.00;76.70
22769;DHT22;13001;51.968;5.918;2024-03-08T15:55:20;10.00;77.70